createdAt,value
2019-04-06T00:00:07.261Z,98.57
2019-04-06T00:01:12.290Z,98.82
2019-04-06T00:02:08.030Z,98.82
2019-04-06T00:03:07.230Z,98.30
2019-04-06T00:04:07.217Z,98.30
2019-04-06T00:05:07.203Z,98.30
2019-04-06T00:06:07.203Z,98.30
2019-04-06T00:07:07.201Z,98.82
2019-04-06T00:08:07.157Z,98.41
2019-04-06T00:09:07.147Z,98.82
2019-04-06T00:10:07.138Z,98.82
2019-04-06T00:11:07.135Z,98.71
2019-04-06T00:12:12.142Z,98.61
2019-04-06T00:13:07.121Z,98.30
2019-04-06T00:14:07.090Z,98.86
2019-04-06T00:15:07.097Z,98.71
2019-04-06T00:16:07.094Z,98.92
2019-04-06T00:17:07.106Z,98.45
2019-04-06T00:18:07.046Z,98.92
2019-04-06T00:19:07.039Z,99.38
2019-04-06T00:20:07.023Z,99.23
2019-04-06T00:21:07.017Z,99.07
2019-04-06T00:22:07.030Z,98.92
2019-04-06T00:23:12.057Z,99.07
2019-04-06T00:24:06.985Z,98.97
2019-04-06T00:25:06.968Z,98.92
2019-04-06T00:26:07.008Z,99.02
2019-04-06T00:27:06.965Z,99.48
2019-04-06T00:28:06.934Z,99.07
2019-04-06T00:29:06.939Z,99.27
2019-04-06T00:30:06.913Z,99.17
2019-04-06T00:31:06.900Z,99.27
2019-04-06T00:32:06.904Z,99.07
2019-04-06T00:33:06.897Z,98.97
2019-04-06T00:34:11.890Z,98.86
2019-04-06T00:35:06.905Z,99.27
2019-04-06T00:36:06.863Z,98.97
2019-04-06T00:37:06.902Z,98.86
2019-04-06T00:38:06.839Z,98.97
2019-04-06T00:39:06.827Z,98.97
2019-04-06T00:40:06.809Z,99.07
2019-04-06T00:41:06.855Z,99.73
2019-04-06T00:42:06.800Z,99.48
2019-04-06T00:43:06.789Z,98.91
2019-04-06T00:44:06.763Z,99.58
2019-04-06T00:45:11.781Z,99.27
2019-04-06T00:46:06.734Z,99.58
2019-04-06T00:47:06.765Z,99.48
2019-04-06T00:48:06.731Z,99.63
2019-04-06T00:49:06.706Z,99.38
2019-04-06T00:50:06.692Z,98.91
2019-04-06T00:51:06.679Z,99.07
2019-04-06T00:52:06.681Z,98.80
2019-04-06T00:53:06.658Z,99.38
2019-04-06T00:54:06.649Z,99.27
2019-04-06T00:55:06.638Z,99.38
2019-04-06T00:56:11.660Z,99.01
2019-04-06T00:57:06.630Z,98.70
2019-04-06T00:58:06.601Z,99.73
2019-04-06T00:59:06.588Z,99.73
2019-04-06T01:00:06.580Z,99.63
2019-04-06T01:01:06.574Z,99.43
2019-04-06T01:02:06.573Z,99.43
2019-04-06T01:03:06.558Z,99.68
2019-04-06T01:04:06.669Z,99.32
2019-04-06T01:05:06.526Z,99.63
2019-04-06T01:06:06.512Z,99.52
2019-04-06T01:07:11.538Z,99.57
2019-04-06T01:08:06.492Z,99.63
2019-04-06T01:09:06.485Z,99.57
2019-04-06T01:10:06.474Z,99.32
2019-04-06T01:11:06.456Z,99.47
2019-04-06T01:12:06.454Z,99.63
2019-04-06T01:13:06.452Z,99.57
2019-04-06T01:14:06.422Z,99.78
2019-04-06T01:15:06.422Z,99.57
2019-04-06T01:16:06.449Z,99.78
2019-04-06T01:17:06.389Z,99.47
2019-04-06T01:18:11.417Z,99.57
2019-04-06T01:19:06.380Z,99.57
2019-04-06T01:20:06.355Z,99.57
2019-04-06T01:21:06.347Z,99.57
2019-04-06T01:22:06.344Z,99.57
2019-04-06T01:23:06.338Z,99.68
2019-04-06T01:24:06.321Z,99.57
2019-04-06T01:25:06.312Z,99.57
2019-04-06T01:26:07.365Z,99.37
2019-04-06T01:27:06.277Z,99.37
2019-04-06T01:28:06.293Z,99.37
2019-04-06T01:29:11.285Z,99.37
2019-04-06T01:30:06.244Z,99.37
2019-04-06T01:31:06.263Z,99.57
2019-04-06T01:32:06.222Z,99.41
2019-04-06T01:33:06.227Z,99.57
2019-04-06T01:34:06.203Z,99.68
2019-04-06T01:35:06.273Z,99.41
2019-04-06T01:36:06.177Z,99.41
2019-04-06T01:37:06.167Z,99.10
2019-04-06T01:38:06.172Z,99.16
2019-04-06T01:39:06.174Z,98.75
2019-04-06T01:40:11.187Z,99.21
2019-04-06T01:41:06.132Z,99.31
2019-04-06T01:42:06.125Z,99.00
2019-04-06T01:43:06.115Z,99.31
2019-04-06T01:44:06.090Z,99.00
2019-04-06T01:45:06.085Z,99.00
2019-04-06T01:46:06.070Z,99.21
2019-04-06T01:47:06.059Z,99.21
2019-04-06T01:48:06.083Z,98.84
2019-04-06T01:49:06.031Z,99.05
2019-04-06T01:50:06.022Z,98.74
2019-04-06T01:51:11.036Z,98.43
2019-04-06T01:52:06.001Z,98.43
2019-04-06T01:53:06.015Z,98.18
2019-04-06T01:54:05.987Z,98.49
2019-04-06T01:55:05.967Z,98.18
2019-04-06T01:56:05.954Z,98.49
2019-04-06T01:57:05.944Z,98.22
2019-04-06T01:58:05.958Z,98.63
2019-04-06T01:59:05.931Z,98.63
2019-04-06T02:00:05.928Z,98.11
2019-04-06T02:01:05.898Z,98.18
2019-04-06T02:02:10.917Z,98.22
2019-04-06T02:03:05.879Z,98.49
2019-04-06T02:04:05.882Z,98.79
2019-04-06T02:05:05.859Z,98.38
2019-04-06T02:06:05.843Z,98.01
2019-04-06T02:07:05.847Z,98.07
2019-04-06T02:08:05.863Z,98.49
2019-04-06T02:09:05.936Z,97.50
2019-04-06T02:10:05.800Z,97.81
2019-04-06T02:11:05.793Z,97.71
2019-04-06T02:12:05.775Z,97.60
2019-04-06T02:13:10.788Z,97.50
2019-04-06T02:14:05.777Z,97.50
2019-04-06T02:15:05.769Z,97.50
2019-04-06T02:16:05.738Z,97.91
2019-04-06T02:17:05.720Z,97.54
2019-04-06T02:18:06.064Z,97.91
2019-04-06T02:19:05.711Z,97.64
2019-04-06T02:20:05.701Z,97.85
2019-04-06T02:21:05.739Z,97.96
2019-04-06T02:22:05.671Z,98.06
2019-04-06T02:23:05.659Z,97.85
2019-04-06T02:24:10.690Z,97.44
2019-04-06T02:25:05.632Z,97.33
2019-04-06T02:26:05.618Z,97.23
2019-04-06T02:27:05.606Z,97.75
2019-04-06T02:28:05.626Z,97.23
2019-04-06T02:29:05.596Z,97.13
2019-04-06T02:30:05.713Z,97.44
2019-04-06T02:31:05.567Z,97.17
2019-04-06T02:32:05.550Z,97.13
2019-04-06T02:33:05.539Z,97.44
2019-04-06T02:34:05.555Z,97.49
2019-04-06T02:35:10.556Z,96.97
2019-04-06T02:36:05.505Z,97.23
2019-04-06T02:37:05.626Z,97.33
2019-04-06T02:38:05.483Z,97.44
2019-04-06T02:39:05.495Z,97.02
2019-04-06T02:40:07.740Z,96.92
2019-04-06T02:41:05.650Z,96.41
2019-04-06T02:42:05.468Z,95.83
2019-04-06T02:43:05.428Z,96.14
2019-04-06T02:44:05.435Z,95.89
2019-04-06T02:45:05.405Z,95.73
2019-04-06T02:46:10.416Z,95.94
2019-04-06T02:47:05.386Z,95.48
2019-04-06T02:48:05.382Z,95.73
2019-04-06T02:49:05.360Z,95.62
2019-04-06T02:50:05.421Z,95.62
2019-04-06T02:51:05.338Z,95.48
2019-04-06T02:52:05.326Z,95.68
2019-04-06T02:53:05.314Z,95.99
2019-04-06T02:54:05.484Z,95.99
2019-04-06T02:55:05.301Z,96.03
2019-04-06T02:56:05.285Z,95.89
2019-04-06T02:57:10.302Z,95.99
2019-04-06T02:58:05.265Z,95.78
2019-04-06T02:59:05.253Z,95.78
2019-04-06T03:00:05.261Z,95.89
2019-04-06T03:01:05.273Z,95.48
2019-04-06T03:02:05.219Z,94.96
2019-04-06T03:03:05.206Z,95.78
2019-04-06T03:04:05.261Z,95.94
2019-04-06T03:05:05.194Z,95.68
2019-04-06T03:06:05.189Z,95.89
2019-04-06T03:07:05.156Z,95.37
2019-04-06T03:08:10.171Z,95.52
2019-04-06T03:09:05.145Z,95.57
2019-04-06T03:10:05.150Z,95.62
2019-04-06T03:11:05.111Z,95.62
2019-04-06T03:12:05.110Z,95.68
2019-04-06T03:13:05.090Z,95.68
2019-04-06T03:14:05.079Z,95.78
2019-04-06T03:15:05.090Z,95.78
2019-04-06T03:16:05.117Z,95.78
2019-04-06T03:17:05.047Z,96.30
2019-04-06T03:18:05.035Z,96.20
2019-04-06T03:19:10.044Z,96.24
2019-04-06T03:20:05.029Z,95.99
2019-04-06T03:21:05.121Z,95.78
2019-04-06T03:22:04.992Z,95.78
2019-04-06T03:23:04.976Z,95.89
2019-04-06T03:24:04.976Z,95.89
2019-04-06T03:25:04.975Z,95.37
2019-04-06T03:26:04.952Z,95.68
2019-04-06T03:27:04.942Z,96.09
2019-04-06T03:28:04.920Z,95.94
2019-04-06T03:29:04.913Z,95.57
2019-04-06T03:30:09.931Z,95.27
2019-04-06T03:31:04.898Z,95.78
2019-04-06T03:32:04.911Z,95.68
2019-04-06T03:33:04.881Z,95.78
2019-04-06T03:34:04.865Z,95.89
2019-04-06T03:35:04.857Z,95.78
2019-04-06T03:36:04.868Z,95.57
2019-04-06T03:37:05.048Z,95.78
2019-04-06T03:38:05.046Z,96.09
2019-04-06T03:39:04.863Z,95.78
2019-04-06T03:40:04.794Z,95.37
2019-04-06T03:41:09.808Z,94.85
2019-04-06T03:42:04.836Z,94.75
2019-04-06T03:43:04.759Z,94.75
2019-04-06T03:44:04.742Z,94.75
2019-04-06T03:45:04.878Z,94.75
2019-04-06T03:46:04.894Z,95.10
2019-04-06T03:47:04.709Z,94.96
2019-04-06T03:48:04.831Z,94.96
2019-04-06T03:49:04.689Z,95.48
2019-04-06T03:50:04.756Z,95.78
2019-04-06T03:51:04.676Z,95.78
2019-04-06T03:52:09.672Z,95.57
2019-04-06T03:53:04.847Z,95.57
2019-04-06T03:54:04.650Z,95.37
2019-04-06T03:55:04.629Z,95.48
2019-04-06T03:56:04.649Z,95.48
2019-04-06T03:57:15.233Z,95.73
2019-04-06T03:58:05.582Z,96.24
2019-04-06T03:59:04.580Z,96.03
2019-04-06T04:00:04.567Z,96.14
2019-04-06T04:01:04.581Z,96.76
2019-04-06T04:02:04.538Z,96.14
2019-04-06T04:03:09.551Z,96.66
2019-04-06T04:04:04.515Z,96.76
2019-04-06T04:05:04.584Z,96.66
2019-04-06T04:06:04.844Z,96.24
2019-04-06T04:07:04.481Z,96.34
2019-04-06T04:08:04.471Z,96.45
2019-04-06T04:09:04.463Z,96.34
2019-04-06T04:10:04.446Z,96.34
2019-04-06T04:11:04.442Z,96.45
2019-04-06T04:12:04.442Z,96.24
2019-04-06T04:13:04.413Z,96.70
2019-04-06T04:14:09.565Z,96.76
2019-04-06T04:15:04.392Z,96.66
2019-04-06T04:16:04.403Z,96.55
2019-04-06T04:17:04.383Z,96.24
2019-04-06T04:18:04.393Z,96.39
2019-04-06T04:19:04.452Z,96.55
2019-04-06T04:20:04.339Z,96.70
2019-04-06T04:21:04.327Z,96.70
2019-04-06T04:22:04.340Z,96.70
2019-04-06T04:23:04.441Z,96.70
2019-04-06T04:24:04.290Z,96.59
2019-04-06T04:25:09.330Z,96.59
2019-04-06T04:26:04.293Z,96.59
2019-04-06T04:27:04.273Z,96.70
2019-04-06T04:28:04.252Z,96.29
2019-04-06T04:29:04.238Z,96.29
2019-04-06T04:30:04.226Z,96.19
2019-04-06T04:31:04.211Z,96.19
2019-04-06T04:32:04.212Z,95.98
2019-04-06T04:33:04.195Z,96.70
2019-04-06T04:34:04.198Z,96.19
2019-04-06T04:35:04.173Z,96.08
2019-04-06T04:36:09.197Z,96.12
2019-04-06T04:37:04.308Z,95.92
2019-04-06T04:38:04.146Z,95.92
2019-04-06T04:39:04.130Z,96.23
2019-04-06T04:40:04.126Z,96.54
2019-04-06T04:41:04.221Z,97.62
2019-04-06T04:42:04.100Z,97.52
2019-04-06T04:43:04.084Z,97.10
2019-04-06T04:44:04.147Z,97.72
2019-04-06T04:45:04.056Z,98.08
2019-04-06T04:46:04.241Z,98.18
2019-04-06T04:47:09.066Z,98.70
2019-04-06T04:48:04.023Z,98.80
2019-04-06T04:49:04.010Z,98.39
2019-04-06T04:50:04.005Z,98.39
2019-04-06T04:51:03.986Z,98.70
2019-04-06T04:52:04.030Z,99.01
2019-04-06T04:53:04.137Z,99.22
2019-04-06T04:54:03.953Z,99.32
2019-04-06T04:55:03.942Z,99.63
2019-04-06T04:56:03.931Z,99.52
2019-04-06T04:57:03.941Z,99.52
2019-04-06T04:58:09.114Z,99.32
2019-04-06T04:59:03.900Z,99.99
2019-04-06T05:00:03.918Z,99.99
2019-04-06T05:01:04.046Z,99.99
2019-04-06T05:02:03.867Z,99.99
2019-04-06T05:03:03.877Z,99.84
2019-04-06T05:04:03.841Z,99.32
2019-04-06T05:05:03.828Z,99.68
2019-04-06T05:06:03.818Z,99.99
2019-04-06T05:07:03.810Z,99.99
2019-04-06T05:08:03.905Z,99.94
2019-04-06T05:09:08.811Z,99.63
2019-04-06T05:10:03.774Z,99.84
2019-04-06T05:11:03.760Z,99.94
2019-04-06T05:12:03.754Z,99.94
2019-04-06T05:13:03.771Z,99.84
2019-04-06T05:14:03.734Z,99.99
2019-04-06T05:15:03.717Z,99.99
2019-04-06T05:16:03.703Z,99.99
2019-04-06T05:17:03.692Z,99.90
2019-04-06T05:18:03.701Z,99.99
2019-04-06T05:19:03.676Z,99.99
2019-04-06T05:20:08.685Z,99.07
2019-04-06T05:21:03.650Z,99.48
2019-04-06T05:22:03.637Z,99.38
2019-04-06T05:23:03.641Z,99.48
2019-04-06T05:24:03.622Z,99.23
2019-04-06T05:25:03.605Z,99.02
2019-04-06T05:26:03.595Z,98.92
2019-04-06T05:27:03.701Z,98.65
2019-04-06T05:28:03.578Z,98.50
2019-04-06T05:29:03.575Z,99.07
2019-04-06T05:30:03.576Z,99.13
2019-04-06T05:31:08.559Z,98.96
2019-04-06T05:32:03.530Z,98.61
2019-04-06T05:33:03.531Z,98.65
2019-04-06T05:34:03.511Z,98.61
2019-04-06T05:35:03.496Z,98.55
2019-04-06T05:36:03.484Z,98.71
2019-04-06T05:37:03.469Z,98.50
2019-04-06T05:38:03.484Z,98.61
2019-04-06T05:39:03.445Z,98.55
2019-04-06T05:40:03.435Z,98.86
2019-04-06T05:41:03.483Z,99.38
2019-04-06T05:42:08.446Z,99.54
2019-04-06T05:43:03.445Z,99.58
2019-04-06T05:44:03.392Z,99.99
2019-04-06T05:45:03.401Z,99.95
2019-04-06T05:46:03.489Z,99.33
2019-04-06T05:47:03.364Z,99.33
2019-04-06T05:48:03.403Z,99.23
2019-04-06T05:49:03.346Z,99.29
2019-04-06T05:50:03.326Z,98.66
2019-04-06T05:51:03.312Z,98.66
2019-04-06T05:52:03.303Z,98.97
2019-04-06T05:53:08.323Z,98.62
2019-04-06T05:54:03.283Z,98.93
2019-04-06T05:55:03.269Z,97.96
2019-04-06T05:56:03.255Z,98.41
2019-04-06T05:57:03.242Z,97.75
2019-04-06T05:58:04.726Z,97.85
2019-04-06T05:59:03.235Z,97.54
2019-04-06T06:00:03.437Z,96.09
2019-04-06T06:01:04.081Z,96.55
2019-04-06T06:02:03.204Z,96.61
2019-04-06T06:03:03.228Z,96.61
2019-04-06T06:04:08.815Z,96.09
2019-04-06T06:05:03.530Z,96.09
2019-04-06T06:06:03.148Z,95.89
2019-04-06T06:07:03.131Z,95.74
2019-04-06T06:08:03.138Z,96.05
2019-04-06T06:09:03.157Z,95.95
2019-04-06T06:10:03.099Z,95.84
2019-04-06T06:11:03.086Z,95.84
2019-04-06T06:12:03.094Z,94.67
2019-04-06T06:13:03.072Z,94.56
2019-04-06T06:14:03.124Z,94.56
2019-04-06T06:15:08.067Z,94.25
2019-04-06T06:16:03.029Z,93.73
2019-04-06T06:17:03.019Z,94.00
2019-04-06T06:18:03.155Z,93.28
2019-04-06T06:19:03.008Z,94.00
2019-04-06T06:20:02.988Z,93.90
2019-04-06T06:21:02.974Z,92.46
2019-04-06T06:22:02.965Z,92.66
2019-04-06T06:23:02.949Z,92.66
2019-04-06T06:24:02.981Z,91.94
2019-04-06T06:25:03.159Z,92.46
2019-04-06T06:26:08.020Z,92.14
2019-04-06T06:27:02.911Z,91.94
2019-04-06T06:28:13.346Z,91.58
2019-04-06T06:29:03.902Z,91.79
2019-04-06T06:30:02.881Z,91.58
2019-04-06T06:31:02.945Z,91.28
2019-04-06T06:32:02.853Z,91.22
2019-04-06T06:33:02.838Z,91.32
2019-04-06T06:34:02.825Z,91.63
2019-04-06T06:35:02.828Z,91.32
2019-04-06T06:36:02.810Z,91.32
2019-04-06T06:37:07.825Z,91.17
2019-04-06T06:38:02.782Z,90.97
2019-04-06T06:39:02.840Z,90.55
2019-04-06T06:40:02.775Z,90.28
2019-04-06T06:41:02.748Z,90.25
2019-04-06T06:42:02.751Z,89.52
2019-04-06T06:43:02.787Z,89.15
2019-04-06T06:44:02.715Z,89.36
2019-04-06T06:45:02.713Z,89.25
2019-04-06T06:46:02.692Z,88.64
2019-04-06T06:47:02.680Z,88.39
2019-04-06T06:48:07.702Z,88.24
2019-04-06T06:49:02.681Z,88.35
2019-04-06T06:50:02.656Z,88.14
2019-04-06T06:51:02.635Z,87.83
2019-04-06T06:52:02.631Z,88.35
2019-04-06T06:53:02.628Z,88.04
2019-04-06T06:54:02.620Z,88.20
2019-04-06T06:55:02.602Z,86.82
2019-04-06T06:56:02.581Z,86.13
2019-04-06T06:57:02.570Z,84.20
2019-04-06T06:58:02.556Z,81.55
2019-04-06T06:59:07.573Z,79.08
2019-04-06T07:00:02.579Z,77.26
2019-04-06T07:01:03.275Z,75.69
2019-04-06T07:02:02.526Z,74.49
2019-04-06T07:03:02.511Z,72.65
2019-04-06T07:04:02.494Z,71.90
2019-04-06T07:05:02.498Z,69.85
2019-04-06T07:06:02.468Z,70.81
2019-04-06T07:07:02.458Z,71.22
2019-04-06T07:08:02.458Z,71.77
2019-04-06T07:09:02.434Z,72.31
2019-04-06T07:10:07.635Z,73.68
2019-04-06T07:11:02.429Z,74.19
2019-04-06T07:12:02.405Z,74.19
2019-04-06T07:13:02.389Z,74.84
2019-04-06T07:14:02.638Z,75.82
2019-04-06T07:15:02.380Z,75.01
2019-04-06T07:16:02.361Z,75.01
2019-04-06T07:17:02.346Z,75.42
2019-04-06T07:18:02.332Z,75.21
2019-04-06T07:19:02.322Z,74.56
2019-04-06T07:20:02.343Z,75.48
2019-04-06T07:21:07.320Z,74.36
2019-04-06T07:22:02.299Z,74.22
2019-04-06T07:23:02.278Z,74.02
2019-04-06T07:24:02.297Z,74.02
2019-04-06T07:25:02.717Z,73.50
2019-04-06T07:26:02.251Z,73.40
2019-04-06T07:27:02.243Z,75.07
2019-04-06T07:28:02.456Z,75.18
2019-04-06T07:29:02.455Z,75.28
2019-04-06T07:30:02.280Z,74.87
2019-04-06T07:31:02.216Z,75.07
2019-04-06T07:32:07.252Z,74.66
2019-04-06T07:33:02.183Z,74.87
2019-04-06T07:34:02.159Z,73.71
2019-04-06T07:35:02.149Z,73.36
2019-04-06T07:36:02.143Z,72.52
2019-04-06T07:37:02.254Z,71.39
2019-04-06T07:38:02.107Z,70.20
2019-04-06T07:39:02.096Z,68.84
2019-04-06T07:40:02.109Z,67.79
2019-04-06T07:41:02.070Z,66.74
2019-04-06T07:42:02.069Z,66.39
2019-04-06T07:43:07.068Z,65.58
2019-04-06T07:44:02.038Z,65.65
2019-04-06T07:45:02.055Z,65.72
2019-04-06T07:46:02.018Z,65.08
2019-04-06T07:47:02.007Z,64.67
2019-04-06T07:48:02.211Z,64.57
2019-04-06T07:49:08.383Z,63.48
2019-04-06T07:50:02.991Z,63.61
2019-04-06T07:51:01.954Z,65.45
2019-04-06T07:52:01.954Z,65.75
2019-04-06T07:53:01.958Z,65.25
2019-04-06T07:54:07.131Z,66.06
2019-04-06T07:55:01.917Z,65.80
2019-04-06T07:56:02.021Z,64.84
2019-04-06T07:57:02.027Z,62.78
2019-04-06T07:58:01.883Z,63.19
2019-04-06T07:59:01.864Z,62.45
2019-04-06T08:00:01.858Z,63.23
2019-04-06T08:01:01.856Z,62.41
2019-04-06T08:02:01.863Z,61.98
2019-04-06T08:03:01.818Z,62.49
2019-04-06T08:04:01.861Z,61.55
2019-04-06T08:05:06.841Z,61.37
2019-04-06T08:06:01.802Z,61.98
2019-04-06T08:07:01.787Z,61.98
2019-04-06T08:08:01.763Z,61.78
2019-04-06T08:09:01.771Z,61.78
2019-04-06T08:10:01.747Z,61.37
2019-04-06T08:11:01.745Z,61.81
2019-04-06T08:12:01.717Z,62.04
2019-04-06T08:13:01.859Z,62.24
2019-04-06T08:14:01.709Z,61.88
2019-04-06T08:15:01.686Z,61.14
2019-04-06T08:16:06.710Z,61.21
2019-04-06T08:17:01.909Z,60.47
2019-04-06T08:18:01.656Z,59.16
2019-04-06T08:19:01.644Z,60.17
2019-04-06T08:20:01.627Z,60.04
2019-04-06T08:21:01.630Z,60.17
2019-04-06T08:22:01.606Z,59.36
2019-04-06T08:23:01.594Z,58.85
2019-04-06T08:24:01.581Z,59.26
2019-04-06T08:25:01.569Z,58.72
2019-04-06T08:26:01.569Z,57.24
2019-04-06T08:27:06.757Z,57.42
2019-04-06T08:28:01.555Z,56.31
2019-04-06T08:29:02.683Z,56.46
2019-04-06T08:30:01.558Z,54.74
2019-04-06T08:31:01.513Z,55.85
2019-04-06T08:32:01.489Z,55.62
2019-04-06T08:33:01.484Z,55.88
2019-04-06T08:34:01.472Z,57.75
2019-04-06T08:35:01.454Z,57.53
2019-04-06T08:36:01.488Z,57.32
2019-04-06T08:37:01.439Z,58.16
2019-04-06T08:38:06.461Z,57.75
2019-04-06T08:39:01.412Z,57.35
2019-04-06T08:40:01.428Z,58.06
2019-04-06T08:41:01.400Z,58.87
2019-04-06T08:42:01.378Z,59.00
2019-04-06T08:43:01.379Z,59.10
2019-04-06T08:44:01.353Z,59.53
2019-04-06T08:45:01.341Z,60.40
2019-04-06T08:46:01.343Z,61.55
2019-04-06T08:47:01.319Z,61.95
2019-04-06T08:48:01.313Z,60.71
2019-04-06T08:49:06.321Z,60.81
2019-04-06T08:50:01.492Z,61.01
2019-04-06T08:51:01.284Z,61.24
2019-04-06T08:52:01.494Z,61.62
2019-04-06T08:53:01.258Z,61.44
2019-04-06T08:54:01.241Z,62.39
2019-04-06T08:55:01.244Z,62.08
2019-04-06T08:56:01.262Z,62.70
2019-04-06T08:57:01.270Z,61.85
2019-04-06T08:58:01.204Z,61.24
2019-04-06T08:59:10.684Z,60.20
2019-04-06T09:00:07.205Z,58.78
2019-04-06T09:01:01.179Z,58.67
2019-04-06T09:02:01.169Z,57.56
2019-04-06T09:03:01.145Z,58.14
2019-04-06T09:04:01.175Z,57.35
2019-04-06T09:05:01.116Z,57.56
2019-04-06T09:06:01.190Z,57.46
2019-04-06T09:07:01.107Z,57.46
2019-04-06T09:08:01.336Z,59.79
2019-04-06T09:09:01.069Z,58.91
2019-04-06T09:10:01.058Z,57.56
2019-04-06T09:11:06.089Z,56.39
2019-04-06T09:12:01.040Z,54.84
2019-04-06T09:13:01.025Z,55.52
2019-04-06T09:14:01.041Z,54.57
2019-04-06T09:15:01.004Z,55.60
2019-04-06T09:16:03.695Z,56.52
2019-04-06T09:17:00.990Z,58.09
2019-04-06T09:18:01.220Z,58.50
2019-04-06T09:19:00.955Z,59.24
2019-04-06T09:20:00.957Z,59.44
2019-04-06T09:21:00.932Z,58.58
2019-04-06T09:22:06.080Z,57.23
2019-04-06T09:23:00.920Z,56.92
2019-04-06T09:24:00.900Z,56.90
2019-04-06T09:25:01.016Z,54.92
2019-04-06T09:26:00.877Z,54.82
2019-04-06T09:27:00.877Z,55.07
2019-04-06T09:28:01.073Z,56.09
2019-04-06T09:29:00.842Z,56.70
2019-04-06T09:30:00.857Z,56.39
2019-04-06T09:31:00.932Z,55.85
2019-04-06T09:32:00.819Z,55.35
2019-04-06T09:33:06.031Z,55.07
2019-04-06T09:34:00.789Z,56.46
2019-04-06T09:35:00.803Z,55.25
2019-04-06T09:36:02.440Z,54.71
2019-04-06T09:37:00.755Z,55.12
2019-04-06T09:38:00.884Z,54.79
2019-04-06T09:39:00.774Z,54.56
2019-04-06T09:40:00.724Z,53.72
2019-04-06T09:41:00.803Z,53.30
2019-04-06T09:42:00.705Z,52.69
2019-04-06T09:43:00.901Z,53.78
2019-04-06T09:44:05.712Z,54.71
2019-04-06T09:45:00.671Z,54.71
2019-04-06T09:46:00.679Z,56.26
2019-04-06T09:47:00.913Z,54.99
2019-04-06T09:48:00.639Z,55.10
2019-04-06T09:49:00.627Z,54.56
2019-04-06T09:50:00.611Z,54.23
2019-04-06T09:51:00.681Z,53.90
2019-04-06T09:52:00.585Z,53.93
2019-04-06T09:53:00.849Z,54.23
2019-04-06T09:54:06.365Z,55.47
2019-04-06T09:55:06.571Z,54.23
2019-04-06T09:56:00.686Z,54.84
2019-04-06T09:57:00.546Z,54.41
2019-04-06T09:58:00.542Z,53.40
2019-04-06T09:59:00.515Z,53.30
2019-04-06T10:00:00.793Z,53.58
2019-04-06T10:01:00.492Z,52.87
2019-04-06T10:02:00.472Z,53.30
2019-04-06T10:03:00.479Z,53.50
2019-04-06T10:04:00.446Z,53.50
2019-04-06T10:05:00.433Z,54.23
2019-04-06T10:06:05.630Z,54.44
2019-04-06T10:07:00.414Z,54.16
2019-04-06T10:08:00.415Z,54.69
2019-04-06T10:09:00.402Z,55.90
2019-04-06T10:10:00.379Z,55.02
2019-04-06T10:11:00.367Z,54.59
2019-04-06T10:12:03.185Z,55.19
2019-04-06T10:13:00.353Z,54.16
2019-04-06T10:14:00.331Z,54.69
2019-04-06T10:15:00.411Z,53.93
2019-04-06T10:16:00.314Z,54.26
2019-04-06T10:17:05.320Z,53.75
2019-04-06T10:18:00.680Z,53.85
2019-04-06T10:19:00.277Z,53.96
2019-04-06T10:20:00.266Z,53.96
2019-04-06T10:21:00.251Z,53.65
2019-04-06T10:22:00.241Z,53.65
2019-04-06T10:23:00.570Z,53.75
2019-04-06T10:24:00.219Z,54.05
2019-04-06T10:25:00.225Z,54.05
2019-04-06T10:26:00.197Z,53.72
2019-04-06T10:27:00.186Z,53.65
2019-04-06T10:28:05.206Z,53.22
2019-04-06T10:29:00.163Z,52.97
2019-04-06T10:30:00.152Z,53.58
2019-04-06T10:31:00.141Z,53.85
2019-04-06T10:32:00.143Z,53.75
2019-04-06T10:33:00.123Z,54.26
2019-04-06T10:34:00.135Z,53.85
2019-04-06T10:35:00.281Z,53.52
2019-04-06T10:36:00.097Z,53.12
2019-04-06T10:37:00.074Z,53.30
2019-04-06T10:38:00.086Z,52.69
2019-04-06T10:39:05.112Z,52.69
2019-04-06T10:40:00.040Z,51.76
2019-04-06T10:41:00.034Z,51.20
2019-04-06T10:42:00.017Z,49.76
2019-04-06T10:43:00.009Z,49.96
2019-04-06T10:44:00.314Z,49.79
2019-04-06T10:44:59.977Z,49.54
2019-04-06T10:46:00.098Z,49.64
2019-04-06T10:53:56.129Z,50.07
2019-04-06T10:54:53.446Z,49.76
2019-04-06T10:55:53.129Z,49.76
2019-04-06T10:56:53.369Z,50.04
2019-04-06T10:57:53.106Z,49.44
2019-04-06T10:58:53.105Z,49.21
2019-04-06T11:00:00.640Z,49.54
2019-04-06T11:00:54.072Z,50.37
2019-04-06T11:01:53.056Z,50.27
2019-04-06T11:02:53.053Z,50.49
2019-04-06T11:03:53.050Z,50.90
2019-04-06T11:04:58.050Z,50.87
2019-04-06T11:05:53.216Z,49.64
2019-04-06T11:06:53.215Z,48.99
2019-04-06T11:07:53.083Z,49.41
2019-04-06T11:08:53.219Z,49.92
2019-04-06T11:09:52.972Z,50.04
2019-04-06T11:10:53.047Z,50.37
2019-04-06T11:11:52.953Z,49.56
2019-04-06T11:12:52.939Z,50.24
2019-04-06T11:13:52.924Z,50.78
2019-04-06T11:14:53.333Z,50.70
2019-04-06T11:15:58.066Z,50.98
2019-04-06T11:16:52.966Z,51.20
2019-04-06T11:17:52.932Z,51.03
2019-04-06T11:18:53.250Z,51.65
2019-04-06T11:19:52.869Z,53.07
2019-04-06T11:20:52.856Z,52.59
2019-04-06T11:21:52.843Z,53.19
2019-04-06T11:22:52.997Z,52.97
2019-04-06T11:23:52.818Z,52.97
2019-04-06T11:24:52.817Z,53.30
2019-04-06T11:25:52.792Z,53.83
2019-04-06T11:26:57.970Z,54.13
2019-04-06T11:27:52.832Z,54.00
2019-04-06T11:28:52.901Z,53.32
2019-04-06T11:29:52.760Z,53.40
2019-04-06T11:30:52.884Z,53.17
2019-04-06T11:31:52.725Z,53.50
2019-04-06T11:32:52.713Z,53.80
2019-04-06T11:33:52.776Z,53.27
2019-04-06T11:34:52.707Z,54.21
2019-04-06T11:35:52.680Z,53.70
2019-04-06T11:36:52.669Z,54.00
2019-04-06T11:37:57.700Z,53.83
2019-04-06T11:38:52.771Z,54.53
2019-04-06T11:39:52.654Z,55.37
2019-04-06T11:40:52.625Z,55.07
2019-04-06T11:41:54.710Z,55.27
2019-04-06T11:42:52.606Z,54.66
2019-04-06T11:43:52.685Z,55.77
2019-04-06T11:44:52.883Z,55.88
2019-04-06T11:45:52.571Z,54.97
2019-04-06T11:46:52.772Z,56.10
2019-04-06T11:47:52.548Z,56.01
2019-04-06T11:48:57.562Z,55.77
2019-04-06T11:49:52.722Z,55.98
2019-04-06T11:50:52.948Z,55.07
2019-04-06T11:51:52.627Z,55.07
2019-04-06T11:52:52.510Z,55.75
2019-04-06T11:53:52.480Z,54.94
2019-04-06T11:54:52.487Z,54.94
2019-04-06T11:55:52.468Z,55.24
2019-04-06T11:56:52.451Z,54.61
2019-04-06T11:57:52.469Z,54.41
2019-04-06T11:58:52.570Z,54.41
2019-04-06T11:59:57.636Z,54.41
2019-04-06T12:00:52.447Z,54.31
2019-04-06T12:01:52.472Z,54.00
2019-04-06T12:02:52.599Z,54.41
2019-04-06T12:03:52.380Z,54.11
2019-04-06T12:04:52.384Z,54.82
2019-04-06T12:05:52.351Z,54.91
2019-04-06T12:06:52.345Z,54.21
2019-04-06T12:07:52.337Z,54.11
2019-04-06T12:08:52.901Z,54.18
2019-04-06T12:09:52.366Z,53.88
2019-04-06T12:10:57.333Z,54.28
2019-04-06T12:11:52.286Z,53.78
2019-04-06T12:12:52.269Z,53.58
2019-04-06T12:13:52.261Z,53.70
2019-04-06T12:14:52.251Z,54.00
2019-04-06T12:15:52.456Z,54.23
2019-04-06T12:16:52.225Z,54.31
2019-04-06T12:17:52.223Z,54.11
2019-04-06T12:18:52.204Z,53.50
2019-04-06T12:19:52.205Z,53.60
2019-04-06T12:20:52.197Z,53.60
2019-04-06T12:21:57.399Z,53.80
2019-04-06T12:22:52.324Z,54.00
2019-04-06T12:23:52.153Z,54.11
2019-04-06T12:24:52.142Z,52.09
2019-04-06T12:25:52.153Z,51.66
2019-04-06T12:26:52.116Z,50.12
2019-04-06T12:27:52.163Z,48.14
2019-04-06T12:28:52.096Z,48.21
2019-04-06T12:29:52.080Z,49.69
2019-04-06T12:30:52.085Z,49.29
2019-04-06T12:31:52.065Z,50.30
2019-04-06T12:32:57.175Z,50.12
2019-04-06T12:33:52.037Z,51.05
2019-04-06T12:34:52.027Z,50.87
2019-04-06T12:35:52.023Z,51.30
2019-04-06T12:36:52.004Z,52.21
2019-04-06T12:37:52.017Z,51.71
2019-04-06T12:38:51.998Z,52.21
2019-04-06T12:39:54.131Z,51.53
2019-04-06T12:40:51.969Z,52.41
2019-04-06T12:41:51.955Z,51.81
2019-04-06T12:42:51.939Z,52.01
2019-04-06T12:43:56.978Z,51.91
2019-04-06T12:44:52.227Z,52.21
2019-04-06T12:45:51.912Z,52.31
2019-04-06T12:46:52.081Z,52.31
2019-04-06T12:47:51.879Z,52.11
2019-04-06T12:48:52.693Z,50.80
2019-04-06T12:49:51.860Z,52.14
2019-04-06T12:50:51.857Z,51.93
2019-04-06T12:51:51.839Z,51.63
2019-04-06T12:52:51.829Z,50.92
2019-04-06T12:53:52.239Z,52.26
2019-04-06T12:54:56.830Z,52.16
2019-04-06T12:55:51.795Z,52.06
2019-04-06T12:56:51.848Z,51.86
2019-04-06T12:57:51.779Z,51.88
2019-04-06T12:58:51.757Z,52.69